Frankford, Missouri
Current Conditions -  °F | °C
As of 5:55 PM on Sunday 23 Nov 2014 (Local Time) from KPPQ Reporting Station
Overcast Overcast  
Wind Chill: 53°   Ceiling: 200
Heat Index: 53°   Visibility: 2.5mi
Dew Point: 51°   Wind: 3mph
Humidity: 94%   Direction: 150°SSE
Pressure: 29.3"   Gusts: NA
Location:  39.49°N, 91.32°W
Report Text: KPPQ 232355Z AUTO 15003KT 2 1/2SM OVC002 12/11 A2930 RMK AO2 P0003 60041 T01150105 10126 20115 PWINO
Loading
Personal Weather Stations






























Interactive Weather Map New forecast layout! Learn more

10-Day Weather Forecast

Advertisements
Track Severe Weather on mobile